UAL1512 KIAH-MRLB
Flight info
| Callsign | UAL1512 |
|---|---|
| Flight time | N/A |
| Altitude | 37000 |
| Route | FLYZA5 ANKRR L208 DUTNA UL208 MID UB753 BZE UZ512 MGA DCT OVADO OVADO1S |
| Aircraft | B38M/M-SDE1FGHILORVWXY/HB1 |
Departure
| Time | 2025-09-09 02:56 |
|---|---|
| Airport | George Bush Intercontinental Airport (KIAH) |
Arrival
| Time | N/A |
|---|---|
| Airport | Daniel Oduber Quirós International Airport (MRLB) |
| Time | Latitude | Longitude | Altitude | Speed | Heading |
|---|---|---|---|---|---|
| 2025-09-09 02:30 | 29.98378 | -95.33173 | 98 ft | 0 kts | 321° |
| 2025-09-09 02:42 | 29.98360 | -95.33156 | 98 ft | 2 kts | 321° |
| 2025-09-09 02:43 | 29.98355 | -95.33118 | 98 ft | 2 kts | 232° |
| 2025-09-09 02:43 | 29.98376 | -95.33106 | 98 ft | 1 kts | 178° |
| 2025-09-09 02:46 | 29.98304 | -95.33300 | 98 ft | 13 kts | 270° |
| 2025-09-09 02:46 | 29.98301 | -95.33401 | 99 ft | 10 kts | 268° |
| 2025-09-09 02:47 | 29.98307 | -95.33579 | 100 ft | 13 kts | 275° |
| 2025-09-09 02:47 | 29.98318 | -95.33878 | 101 ft | 12 kts | 270° |
| 2025-09-09 02:48 | 29.98322 | -95.33983 | 101 ft | 14 kts | 287° |
| 2025-09-09 02:48 | 29.98377 | -95.34190 | 101 ft | 12 kts | 270° |
| 2025-09-09 02:49 | 29.98378 | -95.34380 | 101 ft | 13 kts | 265° |
| 2025-09-09 02:49 | 29.98327 | -95.34664 | 98 ft | 17 kts | 270° |
| 2025-09-09 02:50 | 29.98326 | -95.34925 | 98 ft | 14 kts | 270° |
| 2025-09-09 02:50 | 29.98328 | -95.35132 | 98 ft | 10 kts | 276° |
| 2025-09-09 02:51 | 29.98511 | -95.35281 | 98 ft | 10 kts | 332° |
| 2025-09-09 02:51 | 29.98573 | -95.35319 | 98 ft | 10 kts | 332° |
| 2025-09-09 02:52 | 29.98718 | -95.35408 | 98 ft | 13 kts | 331° |
| 2025-09-09 02:52 | 29.98862 | -95.35497 | 98 ft | 9 kts | 329° |
| 2025-09-09 02:53 | 29.98858 | -95.35581 | 98 ft | 6 kts | 248° |
| 2025-09-09 02:53 | 29.98814 | -95.35693 | 98 ft | 6 kts | 236° |
| 2025-09-09 02:54 | 29.98732 | -95.35751 | 98 ft | 5 kts | 153° |
| 2025-09-09 02:54 | 29.97776 | -95.35168 | 98 ft | 145 kts | 153° |
| 2025-09-09 02:55 | 29.96586 | -95.34410 | 336 ft | 184 kts | 147° |
| 2025-09-09 02:55 | 29.94460 | -95.32374 | 1789 ft | 209 kts | 120° |
| 2025-09-09 02:56 | 29.92686 | -95.29534 | 3069 ft | 232 kts | 124° |
| 2025-09-09 02:56 | 29.90564 | -95.26403 | 3596 ft | 267 kts | 125° |
| 2025-09-09 02:57 | 29.88101 | -95.22722 | 3579 ft | 261 kts | 123° |
| 2025-09-09 02:57 | 29.85912 | -95.19177 | 3583 ft | 261 kts | 123° |
| 2025-09-09 02:58 | 29.82660 | -95.13992 | 3568 ft | 262 kts | 127° |
| 2025-09-09 02:58 | 29.81195 | -95.12402 | 3567 ft | 265 kts | 139° |
| 2025-09-09 02:59 | 29.78109 | -95.09741 | 3564 ft | 266 kts | 139° |
| 2025-09-09 02:59 | 29.75116 | -95.07214 | 3566 ft | 268 kts | 147° |
| 2025-09-09 03:00 | 29.71394 | -95.05514 | 3568 ft | 270 kts | 157° |
| 2025-09-09 03:00 | 29.67758 | -95.03989 | 3567 ft | 270 kts | 156° |
| 2025-09-09 03:01 | 29.64161 | -95.02465 | 4436 ft | 279 kts | 157° |
| 2025-09-09 03:01 | 29.60441 | -95.00891 | 6234 ft | 282 kts | 158° |
| 2025-09-09 03:02 | 29.54809 | -94.98509 | 8542 ft | 293 kts | 159° |
| 2025-09-09 03:02 | 29.52899 | -94.97703 | 9279 ft | 296 kts | 159° |
| 2025-09-09 03:03 | 29.48863 | -94.95999 | 10519 ft | 313 kts | 159° |
| 2025-09-09 03:03 | 29.44531 | -94.94169 | 11242 ft | 344 kts | 159° |
| 2025-09-09 03:04 | 29.39833 | -94.92191 | 11800 ft | 376 kts | 159° |
| 2025-09-09 03:04 | 29.34293 | -94.89854 | 12546 ft | 400 kts | 159° |
| 2025-09-09 03:05 | 29.28955 | -94.87597 | 13583 ft | 408 kts | 156° |
| 2025-09-09 03:05 | 29.24005 | -94.83912 | 14660 ft | 413 kts | 136° |
| 2025-09-09 03:06 | 29.19613 | -94.79073 | 15687 ft | 421 kts | 134° |
| 2025-09-09 03:06 | 29.15321 | -94.74365 | 16655 ft | 430 kts | 135° |
| 2025-09-09 03:07 | 29.10830 | -94.69538 | 17615 ft | 437 kts | 135° |
| 2025-09-09 03:07 | 29.06330 | -94.64731 | 18557 ft | 444 kts | 135° |
| 2025-09-09 03:08 | 29.01753 | -94.59846 | 19441 ft | 451 kts | 136° |
| 2025-09-09 03:08 | 28.97062 | -94.54851 | 20286 ft | 458 kts | 136° |
| 2025-09-09 03:08 | 28.94695 | -94.52332 | 20658 ft | 463 kts | 136° |
| 2025-09-09 03:09 | 28.89922 | -94.47260 | 21478 ft | 469 kts | 136° |
| 2025-09-09 03:10 | 28.82424 | -94.39300 | 22643 ft | 478 kts | 136° |